Air Resources Laboratory banner image
Air Resources Laboratory web site National Oceanic and Atmospheric Administration (NOAA)

mt metar


KBHK 171251Z AUTO 12009KT 10SM CLR 18/14 A3013 RMK AO2 SLP181 T01780144=
KBIL 171253Z 23010KT 10SM FEW100 FEW250 17/13 A3010 RMK AO2 SLP160 ACC NE
 T01720133=
KBTM 171253Z AUTO 14004KT 10SM OVC090 14/07 A3024 RMK AO2 SLP177 T01440072=
KBZN 171256Z 00000KT 10SM CLR 14/11 A3017 RMK AO2 SLP177 T01440106=
KCTB 171256Z AUTO 32005KT 10SM CLR 14/05 A3006 RMK AO2 SLP146 T01440050 TSNO=
KDLN 171253Z AUTO 16005KT 10SM BKN100 15/12 A3021 RMK AO2 RAE01B31E49 SLP179
 P0000 T01500117=
KGDV 171256Z AUTO 00000KT 10SM CLR 18/13 A3010 RMK AO2 SLP174 T01830133=
KGFA 171258Z AUTO 24003KT 10SM CLR 17/10 A3006 RMK AO2 SLP151=
KGGW 171253Z AUTO 10009KT 10SM CLR 18/12 A3005 RMK AO2 SLP163 T01780122=
KGTF 171253Z 21003KT 10SM CLR 17/09 A3006 RMK AO2 SLP144 T01670094=
KHLN 171253Z 32003KT 10SM CLR 19/11 A3011 RMK AO2 SLP171 T01890106 $=
KHVR 171253Z AUTO 22004KT 10SM CLR 16/09 A3002 RMK AO2 SLP146 T01610094=
KJDN 171248Z AUTO 00000KT 17/12 A3007 RMK AO1 SLP163 T01720117=
KLVM 171253Z AUTO 00000KT 10SM CLR 14/12 A3017 RMK AO2 SLP172 T01440122=
KLWT 171254Z AUTO 12005KT 10SM CLR 17/11 A3010 RMK AO2 SLP154 T01670111=
KMLS 171253Z AUTO 04009KT 10SM CLR 18/14 A3008 RMK AO2 SLP166 T01780139=
KMSO 171253Z 00000KT 10SM CLR 15/08 A3011 RMK AO2 SLP171 T01500083=
KOLF 171253Z AUTO 08006KT 10SM CLR 17/12 A3008 RMK AO2 SLP178 T01670122 TSNO=
KSDY 171256Z AUTO 07003KT 10SM CLR 17/12 A3010 RMK AO2 SLP189 T01720122=
KWYS 171245Z AUTO 22004KT 10SM CLR 07/07 A3031 RMK AO2=